createdAt,value
2023-02-17T00:01:34.471Z,100799.20
2023-02-17T00:04:07.140Z,100801.38
2023-02-17T00:06:39.786Z,100796.45
2023-02-17T00:09:13.060Z,100790.80
2023-02-17T00:11:46.134Z,100781.14
2023-02-17T00:14:19.553Z,100780.06
2023-02-17T00:16:52.744Z,100782.80
2023-02-17T00:19:26.074Z,100778.59
2023-02-17T00:22:01.481Z,100776.95
2023-02-17T00:24:35.299Z,100785.35
2023-02-17T00:27:08.276Z,100780.77
2023-02-17T00:29:41.134Z,100779.16
2023-02-17T00:32:14.082Z,100770.75
2023-02-17T00:34:48.059Z,100765.46
2023-02-17T00:37:22.018Z,100762.72
2023-02-17T00:39:54.712Z,100762.16
2023-02-17T00:42:28.094Z,100765.61
2023-02-17T00:45:02.516Z,100762.68
2023-02-17T00:47:36.836Z,100761.03
2023-02-17T00:50:10.513Z,100760.13
2023-02-17T00:52:43.321Z,100760.13
2023-02-17T00:55:16.750Z,100751.05
2023-02-17T00:57:49.578Z,100746.13
2023-02-17T01:00:24.266Z,100746.50
2023-02-17T01:02:58.504Z,100745.04
2023-02-17T01:05:31.221Z,100744.33
2023-02-17T01:08:04.537Z,100745.61
2023-02-17T01:10:39.833Z,100733.03
2023-02-17T01:13:14.219Z,100744.36
2023-02-17T01:15:49.620Z,100750.92
2023-02-17T01:18:23.870Z,100737.81
2023-02-17T01:20:56.560Z,100742.16
2023-02-17T01:23:29.241Z,100742.02
2023-02-17T01:26:02.084Z,100731.08
2023-02-17T01:28:36.150Z,100737.27
2023-02-17T01:31:10.489Z,100742.94
2023-02-17T01:33:44.907Z,100732.91
2023-02-17T01:36:19.842Z,100738.38
2023-02-17T01:38:52.533Z,100738.38
2023-02-17T01:41:27.375Z,100728.89
2023-02-17T01:44:08.620Z,100733.44
2023-02-17T01:46:45.461Z,100727.61
2023-02-17T01:49:21.261Z,100728.89
2023-02-17T01:52:02.754Z,100729.08
2023-02-17T01:54:48.755Z,100733.62
2023-02-17T01:57:23.703Z,100726.16
2023-02-17T01:59:56.394Z,100729.27
2023-02-17T02:02:31.161Z,100730.90
2023-02-17T02:05:04.203Z,100722.87
2023-02-17T02:07:40.112Z,100725.61
2023-02-17T02:10:14.968Z,100722.13
2023-02-17T02:12:48.719Z,100722.83
2023-02-17T02:15:23.635Z,100724.47
2023-02-17T02:18:17.840Z,100725.34
2023-02-17T02:20:59.529Z,100714.55
2023-02-17T02:23:52.629Z,100713.47
2023-02-17T02:26:43.814Z,100722.39
2023-02-17T02:29:39.466Z,100713.06
2023-02-17T02:32:33.567Z,100717.41
2023-02-17T02:35:18.317Z,100706.27
2023-02-17T02:38:12.063Z,100708.60
2023-02-17T02:40:51.639Z,100711.52
2023-02-17T02:43:25.438Z,100712.42
2023-02-17T02:45:58.480Z,100710.23
2023-02-17T02:48:31.132Z,100712.82
2023-02-17T02:51:12.791Z,100714.83
2023-02-17T02:54:03.574Z,100705.88
2023-02-17T02:56:45.297Z,100704.41
2023-02-17T02:59:53.731Z,100710.83
2023-02-17T03:02:38.599Z,100704.98
2023-02-17T03:05:23.453Z,100701.55
2023-02-17T03:08:15.156Z,100699.89
2023-02-17T03:10:51.143Z,100696.05
2023-02-17T03:13:24.827Z,100693.11
2023-02-17T03:15:58.677Z,100696.42
2023-02-17T03:18:33.847Z,100697.54
2023-02-17T03:21:09.883Z,100694.83
2023-02-17T03:23:43.549Z,100688.44
2023-02-17T03:26:16.938Z,100682.97
2023-02-17T03:28:51.155Z,100685.53
2023-02-17T03:31:24.231Z,100676.95
2023-02-17T03:33:57.063Z,100677.16
2023-02-17T03:36:30.112Z,100669.31
2023-02-17T03:39:03.585Z,100674.08
2023-02-17T03:41:36.538Z,100672.25
2023-02-17T03:44:09.527Z,100666.41
2023-02-17T03:46:42.444Z,100658.92
2023-02-17T03:49:16.399Z,100666.02
2023-02-17T03:51:49.417Z,100663.12
2023-02-17T03:54:22.620Z,100662.18
2023-02-17T03:56:55.294Z,100660.55
2023-02-17T03:59:29.154Z,100666.41
2023-02-17T04:02:02.085Z,100662.02
2023-02-17T04:04:36.415Z,100664.56
2023-02-17T04:07:09.473Z,100660.91
2023-02-17T04:09:43.264Z,100668.55
2023-02-17T04:12:16.229Z,100668.01
2023-02-17T04:14:49.344Z,100664.70
2023-02-17T04:17:22.849Z,100663.96
2023-02-17T04:19:55.556Z,100664.52
2023-02-17T04:22:28.309Z,100665.38
2023-02-17T04:25:01.192Z,100666.64
2023-02-17T04:27:34.145Z,100670.80
2023-02-17T04:30:09.479Z,100669.16
2023-02-17T04:32:42.688Z,100667.70
2023-02-17T04:35:16.113Z,100659.67
2023-02-17T04:37:50.013Z,100658.77
2023-02-17T04:40:23.492Z,100660.27
2023-02-17T04:42:56.420Z,100666.11
2023-02-17T04:45:29.130Z,100660.99
2023-02-17T04:48:02.214Z,100654.98
2023-02-17T04:50:35.196Z,100654.98
2023-02-17T04:53:08.409Z,100654.05
2023-02-17T04:55:43.110Z,100650.73
2023-02-17T04:58:15.630Z,100651.67
2023-02-17T05:00:49.377Z,100652.95
2023-02-17T05:03:22.189Z,100646.90
2023-02-17T05:05:54.912Z,100648.73
2023-02-17T05:08:27.502Z,100639.60
2023-02-17T05:11:00.257Z,100639.81
2023-02-17T05:13:33.358Z,100636.67
2023-02-17T05:16:07.053Z,100639.18
2023-02-17T05:18:41.053Z,100635.66
2023-02-17T05:21:13.838Z,100641.52
2023-02-17T05:23:47.406Z,100636.75
2023-02-17T05:26:20.124Z,100646.43
2023-02-17T05:28:53.024Z,100650.97
2023-02-17T05:31:26.189Z,100654.95
2023-02-17T05:33:59.096Z,100643.75
2023-02-17T05:36:32.348Z,100645.76
2023-02-17T05:39:05.078Z,100643.38
2023-02-17T05:41:38.146Z,100640.41
2023-02-17T05:44:10.921Z,100642.16
2023-02-17T05:46:43.983Z,100635.97
2023-02-17T05:49:17.615Z,100632.34
2023-02-17T05:51:50.305Z,100629.02
2023-02-17T05:54:23.083Z,100634.23
2023-02-17T05:56:56.149Z,100625.45
2023-02-17T05:59:28.966Z,100628.18
2023-02-17T06:02:01.697Z,100633.47
2023-02-17T06:04:35.121Z,100633.44
2023-02-17T06:07:08.239Z,100624.39
2023-02-17T06:09:40.966Z,100629.47
2023-02-17T06:12:13.767Z,100629.26
2023-02-17T06:14:46.643Z,100619.39
2023-02-17T06:17:19.939Z,100619.52
2023-02-17T06:19:53.871Z,100617.84
2023-02-17T06:22:26.551Z,100617.68
2023-02-17T06:25:00.416Z,100620.93
2023-02-17T06:27:33.454Z,100623.48
2023-02-17T06:30:07.266Z,100622.55
2023-02-17T06:32:41.629Z,100619.55
2023-02-17T06:35:14.368Z,100615.10
2023-02-17T06:37:47.127Z,100617.78
2023-02-17T06:40:21.372Z,100606.23
2023-02-17T06:42:54.690Z,100610.42
2023-02-17T06:45:27.323Z,100612.65
2023-02-17T06:48:00.453Z,100612.98
2023-02-17T06:50:34.070Z,100607.98
2023-02-17T06:53:06.918Z,100606.09
2023-02-17T06:55:41.371Z,100601.13
2023-02-17T06:58:14.173Z,100606.77
2023-02-17T07:00:47.109Z,100606.58
2023-02-17T07:03:20.414Z,100606.03
2023-02-17T07:05:55.041Z,100600.67
2023-02-17T07:08:28.633Z,100600.02
2023-02-17T07:11:03.255Z,100606.74
2023-02-17T07:13:36.060Z,100602.52
2023-02-17T07:16:10.223Z,100605.95
2023-02-17T07:18:43.990Z,100602.79
2023-02-17T07:21:17.041Z,100606.40
2023-02-17T07:23:50.144Z,100610.58
2023-02-17T07:26:23.244Z,100607.95
2023-02-17T07:28:55.923Z,100595.40
2023-02-17T07:31:28.772Z,100599.33
2023-02-17T07:34:03.493Z,100602.22
2023-02-17T07:36:37.292Z,100601.84
2023-02-17T07:39:10.038Z,100602.90
2023-02-17T07:41:43.072Z,100597.03
2023-02-17T07:44:15.934Z,100595.85
2023-02-17T07:46:49.282Z,100593.94
2023-02-17T07:49:22.250Z,100592.18
2023-02-17T07:51:54.943Z,100584.00
2023-02-17T07:54:28.889Z,100592.73
2023-02-17T07:57:01.614Z,100587.59
2023-02-17T07:59:35.040Z,100576.84
2023-02-17T08:02:08.756Z,100580.88
2023-02-17T08:04:41.662Z,100574.30
2023-02-17T08:07:14.690Z,100571.09
2023-02-17T08:10:05.902Z,100571.70
2023-02-17T08:12:56.774Z,100577.64
2023-02-17T08:15:29.760Z,100572.61
2023-02-17T08:18:04.215Z,100566.77
2023-02-17T08:20:37.233Z,100556.70
2023-02-17T08:23:11.138Z,100556.89
2023-02-17T08:25:44.656Z,100554.88
2023-02-17T08:28:18.201Z,100552.52
2023-02-17T08:30:51.512Z,100553.66
2023-02-17T08:33:26.278Z,100551.86
2023-02-17T08:35:59.235Z,100548.64
2023-02-17T08:38:32.365Z,100547.27
2023-02-17T08:41:15.710Z,100545.55
2023-02-17T08:43:49.109Z,100542.59
2023-02-17T08:46:22.477Z,100551.02
2023-02-17T08:48:56.073Z,100544.58
2023-02-17T08:51:28.890Z,100543.45
2023-02-17T08:54:01.831Z,100543.38
2023-02-17T08:56:35.628Z,100538.46
2023-02-17T08:59:10.184Z,100537.12
2023-02-17T09:01:44.680Z,100537.12
2023-02-17T09:04:17.741Z,100539.16
2023-02-17T09:06:52.808Z,100531.36
2023-02-17T09:09:28.191Z,100522.75
2023-02-17T09:12:02.162Z,100524.03
2023-02-17T09:14:35.293Z,100517.48
2023-02-17T09:17:08.368Z,100529.19
2023-02-17T09:19:41.343Z,100524.21
2023-02-17T09:22:29.746Z,100519.05
2023-02-17T09:24:50.793Z,100523.66
2023-02-17T09:27:24.017Z,100510.85
2023-02-17T09:29:57.386Z,100507.59
2023-02-17T09:32:30.853Z,100498.94
2023-02-17T09:35:06.229Z,100499.62
2023-02-17T09:37:39.393Z,100498.79
2023-02-17T09:40:27.456Z,100493.83
2023-02-17T09:43:00.431Z,100491.25
2023-02-17T09:45:37.189Z,100489.94
2023-02-17T09:48:11.923Z,100487.73
2023-02-17T09:50:48.028Z,100486.81
2023-02-17T09:53:33.600Z,100483.41
2023-02-17T09:56:12.272Z,100472.91
2023-02-17T09:58:47.108Z,100473.41
2023-02-17T10:01:22.436Z,100465.63
2023-02-17T10:04:11.713Z,100475.17
2023-02-17T10:06:47.119Z,100459.11
2023-02-17T10:09:45.821Z,100457.23
2023-02-17T10:12:21.626Z,100451.19
2023-02-17T10:14:59.254Z,100445.17
2023-02-17T10:17:36.264Z,100440.17
2023-02-17T10:20:15.687Z,100440.27
2023-02-17T10:22:54.006Z,100434.34
2023-02-17T10:25:49.755Z,100434.73
2023-02-17T10:28:42.395Z,100434.88
2023-02-17T10:31:18.848Z,100429.43
2023-02-17T10:34:06.141Z,100424.68
2023-02-17T10:36:52.307Z,100420.88
2023-02-17T10:39:39.704Z,100417.55
2023-02-17T10:42:18.442Z,100413.00
2023-02-17T10:44:53.393Z,100418.39
2023-02-17T10:47:26.230Z,100414.38
2023-02-17T10:50:00.789Z,100411.30
2023-02-17T10:52:40.596Z,100407.20
2023-02-17T10:55:23.752Z,100401.15
2023-02-17T10:58:00.650Z,100407.54
2023-02-17T11:00:34.404Z,100402.53
2023-02-17T11:03:07.176Z,100405.11
2023-02-17T11:05:39.749Z,100400.36
2023-02-17T11:08:35.206Z,100404.87
2023-02-17T11:11:16.072Z,100402.99
2023-02-17T11:14:11.241Z,100393.19
2023-02-17T11:16:47.388Z,100389.08
2023-02-17T11:19:28.921Z,100383.03
2023-02-17T11:22:03.340Z,100386.11
2023-02-17T11:24:38.841Z,100381.05
2023-02-17T11:27:12.834Z,100386.34
2023-02-17T11:29:45.843Z,100382.52
2023-02-17T11:32:20.255Z,100374.55
2023-02-17T11:34:58.957Z,100373.41
2023-02-17T11:37:33.114Z,100369.80
2023-02-17T11:40:09.233Z,100373.08
2023-02-17T11:42:42.731Z,100368.73
2023-02-17T11:45:20.284Z,100364.44
2023-02-17T11:48:14.304Z,100358.99
2023-02-17T11:50:50.383Z,100352.92
2023-02-17T11:53:45.098Z,100352.41
2023-02-17T11:56:26.975Z,100350.20
2023-02-17T11:59:02.910Z,100345.87
2023-02-17T12:01:57.214Z,100344.20
2023-02-17T12:04:34.951Z,100342.16
2023-02-17T12:07:38.182Z,100343.74
2023-02-17T12:10:17.198Z,100341.70
2023-02-17T12:13:12.155Z,100338.73
2023-02-17T12:15:48.066Z,100338.91
2023-02-17T12:18:36.252Z,100339.16
2023-02-17T12:21:12.325Z,100328.86
2023-02-17T12:23:57.410Z,100327.81
2023-02-17T12:26:46.886Z,100326.48
2023-02-17T12:29:25.950Z,100325.20
2023-02-17T12:32:17.289Z,100322.77
2023-02-17T12:34:55.455Z,100323.12
2023-02-17T12:37:33.207Z,100321.41
2023-02-17T12:40:08.770Z,100323.39
2023-02-17T12:42:54.478Z,100321.67
2023-02-17T12:45:30.610Z,100319.19
2023-02-17T12:48:06.515Z,100319.24
2023-02-17T12:50:40.943Z,100321.98
2023-02-17T12:53:23.430Z,100316.62
2023-02-17T12:55:59.151Z,100310.30
2023-02-17T12:58:32.677Z,100316.03
2023-02-17T13:01:15.425Z,100320.14
2023-02-17T13:03:49.377Z,100314.70
2023-02-17T13:06:30.849Z,100320.44
2023-02-17T13:09:22.583Z,100321.52
2023-02-17T13:11:56.059Z,100321.16
2023-02-17T13:14:42.179Z,100319.63
2023-02-17T13:17:39.283Z,100321.64
2023-02-17T13:20:16.125Z,100323.75
2023-02-17T13:22:49.692Z,100324.79
2023-02-17T13:25:31.141Z,100321.41
2023-02-17T13:28:06.306Z,100323.44
2023-02-17T13:30:41.801Z,100320.12
2023-02-17T13:33:23.518Z,100318.06
2023-02-17T13:35:56.660Z,100321.02
2023-02-17T13:38:33.595Z,100317.11
2023-02-17T13:41:07.933Z,100324.90
2023-02-17T13:43:44.407Z,100319.22
2023-02-17T13:46:24.642Z,100328.59
2023-02-17T13:49:03.225Z,100324.64
2023-02-17T13:51:36.635Z,100323.29
2023-02-17T13:54:10.344Z,100326.33
2023-02-17T13:56:43.676Z,100315.59
2023-02-17T13:59:18.515Z,100315.14
2023-02-17T14:01:51.957Z,100313.75
2023-02-17T14:04:30.644Z,100318.07
2023-02-17T14:07:05.285Z,100309.01
2023-02-17T14:09:38.436Z,100305.59
2023-02-17T14:12:15.637Z,100306.03
2023-02-17T14:14:50.192Z,100308.83
2023-02-17T14:17:32.729Z,100304.91
2023-02-17T14:20:07.423Z,100304.05
2023-02-17T14:22:40.494Z,100303.31
2023-02-17T14:25:17.447Z,100300.90
2023-02-17T14:27:51.547Z,100304.13
2023-02-17T14:30:33.788Z,100301.20
2023-02-17T14:33:10.486Z,100298.64
2023-02-17T14:35:52.094Z,100297.70
2023-02-17T14:38:29.778Z,100297.94
2023-02-17T14:41:03.342Z,100286.94
2023-02-17T14:43:37.964Z,100286.94
2023-02-17T14:46:11.002Z,100289.58
2023-02-17T14:48:44.502Z,100290.16
2023-02-17T14:51:19.455Z,100291.30
2023-02-17T14:53:52.704Z,100294.09
2023-02-17T14:56:30.731Z,100289.55
2023-02-17T14:59:04.131Z,100295.97
2023-02-17T15:01:37.068Z,100296.55
2023-02-17T15:04:10.681Z,100297.67
2023-02-17T15:06:46.513Z,100303.73
2023-02-17T15:09:22.971Z,100300.63
2023-02-17T15:11:56.758Z,100298.45
2023-02-17T15:14:29.500Z,100301.21
2023-02-17T15:17:02.113Z,100298.56
2023-02-17T15:19:35.630Z,100304.23
2023-02-17T15:22:10.684Z,100307.39
2023-02-17T15:24:44.087Z,100301.05
2023-02-17T15:27:18.212Z,100308.20
2023-02-17T15:29:50.928Z,100307.89
2023-02-17T15:32:25.196Z,100309.80
2023-02-17T15:34:58.311Z,100316.40
2023-02-17T15:37:31.553Z,100312.23
2023-02-17T15:40:04.651Z,100311.02
2023-02-17T15:42:37.453Z,100313.44
2023-02-17T15:45:13.397Z,100314.56
2023-02-17T15:47:47.629Z,100319.17
2023-02-17T15:50:23.161Z,100320.81
2023-02-17T15:52:55.796Z,100314.24
2023-02-17T15:55:29.232Z,100314.24
2023-02-17T15:58:04.864Z,100318.09
2023-02-17T16:00:37.978Z,100319.60
2023-02-17T16:03:13.863Z,100321.30
2023-02-17T16:05:48.180Z,100322.27
2023-02-17T16:08:21.551Z,100328.36
2023-02-17T16:10:55.797Z,100326.41
2023-02-17T16:13:29.153Z,100322.95
2023-02-17T16:16:02.161Z,100316.22
2023-02-17T16:18:36.313Z,100322.83
2023-02-17T16:21:12.902Z,100317.70
2023-02-17T16:23:47.122Z,100320.64
2023-02-17T16:26:34.855Z,100322.47
2023-02-17T16:29:20.713Z,100328.50
2023-02-17T16:31:55.280Z,100331.13
2023-02-17T16:34:30.508Z,100330.73
2023-02-17T16:37:05.112Z,100334.81
2023-02-17T16:39:40.665Z,100324.17
2023-02-17T16:42:17.710Z,100327.12
2023-02-17T16:44:51.187Z,100330.42
2023-02-17T16:47:24.234Z,100327.54
2023-02-17T16:49:56.934Z,100334.02
2023-02-17T16:52:30.192Z,100341.00
2023-02-17T16:55:03.731Z,100330.58
2023-02-17T16:57:36.597Z,100336.67
2023-02-17T17:00:11.872Z,100334.17
2023-02-17T17:02:45.454Z,100325.61
2023-02-17T17:05:20.244Z,100327.85
2023-02-17T17:07:53.499Z,100328.30
2023-02-17T17:10:29.009Z,100325.25
2023-02-17T17:13:02.200Z,100330.22
2023-02-17T17:15:37.804Z,100326.78
2023-02-17T17:18:11.523Z,100322.78
2023-02-17T17:20:45.526Z,100316.38
2023-02-17T17:23:20.200Z,100318.04
2023-02-17T17:25:53.483Z,100320.03
2023-02-17T17:28:26.880Z,100320.35
2023-02-17T17:31:02.294Z,100310.67
2023-02-17T17:33:34.447Z,100320.03
2023-02-17T17:36:34.430Z,100312.91
2023-02-17T17:39:09.787Z,100320.82
2023-02-17T17:41:44.262Z,100325.45
2023-02-17T17:44:17.383Z,100318.89
2023-02-17T17:46:50.327Z,100318.95
2023-02-17T17:49:23.328Z,100318.56
2023-02-17T17:51:56.163Z,100321.86
2023-02-17T17:54:29.088Z,100322.98
2023-02-17T17:57:02.044Z,100320.26
2023-02-17T17:59:34.843Z,100320.64
2023-02-17T18:02:08.832Z,100320.80
2023-02-17T18:04:41.885Z,100312.22
2023-02-17T18:07:16.311Z,100310.39
2023-02-17T18:09:50.078Z,100311.67
2023-02-17T18:12:23.493Z,100313.50
2023-02-17T18:14:59.435Z,100319.14
2023-02-17T18:17:34.389Z,100316.80
2023-02-17T18:20:10.588Z,100314.80
2023-02-17T18:22:44.533Z,100313.59
2023-02-17T18:25:18.999Z,100316.20
2023-02-17T18:27:52.151Z,100314.59
2023-02-17T18:30:26.898Z,100320.45
2023-02-17T18:32:59.862Z,100321.05
2023-02-17T18:35:38.694Z,100325.63
2023-02-17T18:38:12.004Z,100330.75
2023-02-17T18:40:45.270Z,100324.89
2023-02-17T18:43:18.845Z,100322.17
2023-02-17T18:45:53.117Z,100323.80
2023-02-17T18:48:26.364Z,100324.73
2023-02-17T18:50:59.296Z,100323.06
2023-02-17T18:53:32.197Z,100334.92
2023-02-17T18:56:07.927Z,100332.36
2023-02-17T18:58:41.892Z,100329.03
2023-02-17T19:01:24.895Z,100333.20
2023-02-17T19:03:59.784Z,100332.47
2023-02-17T19:06:34.792Z,100330.23
2023-02-17T19:09:08.084Z,100325.11
2023-02-17T19:11:40.823Z,100326.77
2023-02-17T19:14:13.724Z,100330.45
2023-02-17T19:16:46.473Z,100328.84
2023-02-17T19:19:19.415Z,100324.84
2023-02-17T19:21:53.406Z,100329.25
2023-02-17T19:24:26.232Z,100321.78
2023-02-17T19:26:59.738Z,100319.23
2023-02-17T19:29:32.705Z,100323.23
2023-02-17T19:32:06.098Z,100318.33
2023-02-17T19:34:39.701Z,100329.30
2023-02-17T19:37:12.544Z,100327.30
2023-02-17T19:39:45.858Z,100322.46
2023-02-17T19:42:20.068Z,100323.56
2023-02-17T19:44:53.048Z,100318.05
2023-02-17T19:47:26.076Z,100320.39
2023-02-17T19:50:00.001Z,100322.22
2023-02-17T19:52:32.916Z,100326.61
2023-02-17T19:55:06.366Z,100329.69
2023-02-17T19:57:39.081Z,100329.84
2023-02-17T20:00:12.896Z,100325.50
2023-02-17T20:02:46.034Z,100330.97
2023-02-17T20:05:19.804Z,100325.84
2023-02-17T20:07:52.601Z,100324.95
2023-02-17T20:10:26.763Z,100332.25
2023-02-17T20:13:00.217Z,100324.21
2023-02-17T20:15:33.311Z,100316.53
2023-02-17T20:18:06.557Z,100319.98
2023-02-17T20:20:39.390Z,100317.27
2023-02-17T20:23:12.147Z,100317.48
2023-02-17T20:25:45.666Z,100309.47
2023-02-17T20:28:18.589Z,100308.77
2023-02-17T20:30:52.324Z,100311.93
2023-02-17T20:33:26.168Z,100309.14
2023-02-17T20:35:59.418Z,100300.52
2023-02-17T20:38:32.478Z,100293.73
2023-02-17T20:48:45.637Z,100306.99
2023-02-17T20:51:18.985Z,100307.92
2023-02-17T20:53:53.430Z,100309.20
2023-02-17T20:56:28.481Z,100308.09
2023-02-17T20:59:01.705Z,100300.41
2023-02-17T21:01:35.167Z,100292.17
2023-02-17T21:04:08.810Z,100305.71
2023-02-17T21:06:43.349Z,100296.97
2023-02-17T21:09:18.440Z,100298.63
2023-02-17T21:11:52.242Z,100292.75
2023-02-17T21:14:26.257Z,100290.89
2023-02-17T21:16:59.978Z,100288.66
2023-02-17T21:19:33.435Z,100289.05
2023-02-17T21:22:06.951Z,100282.27
2023-02-17T21:24:41.588Z,100287.22
2023-02-17T21:27:16.193Z,100283.76
2023-02-17T21:29:49.405Z,100277.52
2023-02-17T21:32:22.669Z,100281.20
2023-02-17T21:34:56.051Z,100284.27
2023-02-17T21:37:29.843Z,100280.44
2023-02-17T21:40:03.297Z,100281.88
2023-02-17T21:42:56.734Z,100287.00
2023-02-17T21:45:30.273Z,100287.38
2023-02-17T21:48:03.525Z,100298.91
2023-02-17T21:50:37.534Z,100283.92
2023-02-17T21:53:10.992Z,100276.97
2023-02-17T21:55:44.041Z,100283.38
2023-02-17T21:58:17.386Z,100283.92
2023-02-17T22:00:51.136Z,100283.92
2023-02-17T22:03:24.575Z,100288.83
2023-02-17T22:05:58.619Z,100286.77
2023-02-17T22:08:31.658Z,100290.05
2023-02-17T22:11:05.320Z,100291.71
2023-02-17T22:13:38.437Z,100288.38
2023-02-17T22:16:11.762Z,100293.09
2023-02-17T22:18:45.298Z,100288.14
2023-02-17T22:21:19.338Z,100291.75
2023-02-17T22:23:53.326Z,100290.48
2023-02-17T22:26:27.560Z,100292.30
2023-02-17T22:29:00.555Z,100295.59
2023-02-17T22:31:35.002Z,100289.36
2023-02-17T22:34:10.181Z,100282.80
2023-02-17T22:36:44.372Z,100278.63
2023-02-17T22:39:17.488Z,100282.62
2023-02-17T22:41:50.583Z,100270.38
2023-02-17T22:44:23.741Z,100265.63
2023-02-17T22:46:56.816Z,100269.66
2023-02-17T22:49:29.842Z,100264.92
2023-02-17T22:52:03.396Z,100259.42
2023-02-17T22:54:38.651Z,100259.42
2023-02-17T22:57:13.268Z,100262.53
2023-02-17T22:59:46.368Z,100255.73
2023-02-17T23:02:19.707Z,100253.56
2023-02-17T23:04:53.304Z,100256.51
2023-02-17T23:07:26.932Z,100261.08
2023-02-17T23:10:00.368Z,100269.09
2023-02-17T23:12:33.908Z,100262.30
2023-02-17T23:15:07.459Z,100257.18
2023-02-17T23:17:59.402Z,100252.61
2023-02-17T23:20:32.443Z,100247.09
2023-02-17T23:23:05.658Z,100247.32
2023-02-17T23:25:48.906Z,100248.60
2023-02-17T23:28:24.532Z,100251.38
2023-02-17T23:30:58.264Z,100251.89
2023-02-17T23:33:31.831Z,100248.98
2023-02-17T23:36:08.996Z,100242.20
2023-02-17T23:38:42.191Z,100230.61
2023-02-17T23:41:15.846Z,100237.56
2023-02-17T23:43:49.003Z,100238.84
2023-02-17T23:46:22.049Z,100232.05
2023-02-17T23:48:55.351Z,100228.37
2023-02-17T23:51:28.384Z,100228.37
2023-02-17T23:54:01.810Z,100221.80
2023-02-17T23:56:36.388Z,100227.31
2023-02-17T23:59:11.395Z,100230.77
